createdAt,value
2024-01-27T00:00:03.253Z,32.96
2024-01-27T00:00:35.078Z,33.08
2024-01-27T00:01:06.882Z,33.14
2024-01-27T00:01:38.624Z,33.11
2024-01-27T00:02:10.508Z,32.99
2024-01-27T00:02:42.278Z,33.07
2024-01-27T00:03:14.029Z,32.94
2024-01-27T00:03:45.798Z,32.93
2024-01-27T00:04:17.648Z,33.32
2024-01-27T00:04:49.633Z,33.16
2024-01-27T00:05:21.529Z,33.28
2024-01-27T00:05:53.477Z,33.00
2024-01-27T00:06:25.275Z,33.21
2024-01-27T00:06:57.097Z,33.06
2024-01-27T00:07:28.992Z,32.86
2024-01-27T00:08:00.797Z,33.20
2024-01-27T00:08:32.508Z,33.13
2024-01-27T00:09:04.414Z,33.19
2024-01-27T00:09:36.188Z,33.18
2024-01-27T00:10:08.193Z,33.24
2024-01-27T00:10:39.987Z,32.82
2024-01-27T00:11:12.460Z,32.99
2024-01-27T00:11:44.108Z,33.00
2024-01-27T00:12:15.995Z,33.06
2024-01-27T00:12:47.789Z,33.01
2024-01-27T00:13:19.465Z,33.01
2024-01-27T00:13:51.279Z,33.03
2024-01-27T00:14:22.972Z,33.09
2024-01-27T00:14:54.703Z,33.07
2024-01-27T00:15:26.933Z,33.04
2024-01-27T00:15:58.799Z,33.04
2024-01-27T00:16:30.542Z,32.77
2024-01-27T00:17:02.321Z,32.81
2024-01-27T00:17:34.121Z,33.03
2024-01-27T00:18:05.944Z,33.08
2024-01-27T00:18:37.942Z,33.01
2024-01-27T00:19:10.049Z,33.00
2024-01-27T00:19:42.102Z,32.93
2024-01-27T00:20:13.958Z,33.24
2024-01-27T00:20:45.724Z,32.92
2024-01-27T00:21:17.633Z,32.91
2024-01-27T00:21:49.521Z,32.85
2024-01-27T00:22:21.512Z,33.03
2024-01-27T00:22:53.227Z,33.17
2024-01-27T00:23:25.025Z,33.14
2024-01-27T00:23:56.737Z,33.19
2024-01-27T00:24:28.695Z,32.96
2024-01-27T00:25:00.483Z,32.88
2024-01-27T00:25:32.232Z,32.96
2024-01-27T00:26:04.043Z,33.04
2024-01-27T00:26:35.795Z,32.84
2024-01-27T00:27:07.709Z,33.01
2024-01-27T00:27:39.541Z,32.81
2024-01-27T00:28:11.223Z,33.00
2024-01-27T00:28:42.914Z,33.06
2024-01-27T00:29:14.650Z,33.06
2024-01-27T00:29:46.341Z,32.72
2024-01-27T00:30:18.156Z,32.85
2024-01-27T00:30:49.967Z,32.91
2024-01-27T00:31:21.727Z,32.89
2024-01-27T00:31:53.460Z,33.06
2024-01-27T00:32:25.224Z,32.91
2024-01-27T00:32:57.033Z,32.75
2024-01-27T00:33:28.883Z,32.94
2024-01-27T00:34:00.670Z,33.02
2024-01-27T00:34:32.546Z,32.95
2024-01-27T00:35:04.558Z,33.01
2024-01-27T00:35:36.298Z,32.94
2024-01-27T00:36:08.129Z,33.05
2024-01-27T00:36:39.851Z,33.04
2024-01-27T00:37:11.616Z,32.93
2024-01-27T00:37:43.406Z,33.20
2024-01-27T00:38:15.111Z,33.07
2024-01-27T00:38:49.786Z,32.74
2024-01-27T00:39:21.676Z,33.05
2024-01-27T00:39:53.491Z,32.94
2024-01-27T00:40:25.274Z,33.17
2024-01-27T00:40:57.229Z,33.00
2024-01-27T00:41:28.950Z,32.96
2024-01-27T00:42:00.770Z,32.92
2024-01-27T00:42:32.911Z,32.76
2024-01-27T00:43:04.982Z,32.69
2024-01-27T00:43:36.791Z,32.88
2024-01-27T00:44:08.735Z,32.82
2024-01-27T00:44:40.629Z,32.84
2024-01-27T00:45:12.567Z,32.92
2024-01-27T00:45:44.364Z,32.83
2024-01-27T00:46:16.124Z,33.08
2024-01-27T00:46:47.989Z,32.77
2024-01-27T00:47:19.997Z,33.14
2024-01-27T00:47:51.799Z,32.75
2024-01-27T00:48:23.799Z,32.74
2024-01-27T00:48:55.731Z,32.67
2024-01-27T00:49:27.640Z,33.03
2024-01-27T00:49:59.467Z,33.09
2024-01-27T00:50:31.168Z,32.92
2024-01-27T00:51:02.922Z,32.88
2024-01-27T00:51:34.721Z,32.75
2024-01-27T00:52:06.804Z,33.11
2024-01-27T00:52:38.549Z,32.90
2024-01-27T00:53:10.289Z,32.69
2024-01-27T00:53:42.065Z,32.92
2024-01-27T00:54:13.836Z,32.99
2024-01-27T00:54:45.676Z,32.91
2024-01-27T00:55:17.395Z,32.91
2024-01-27T00:55:49.124Z,32.80
2024-01-27T00:56:20.858Z,32.67
2024-01-27T00:56:52.572Z,32.87
2024-01-27T00:57:24.476Z,32.89
2024-01-27T00:57:56.159Z,33.08
2024-01-27T00:58:27.892Z,32.94
2024-01-27T00:58:59.602Z,33.01
2024-01-27T00:59:31.335Z,32.88
2024-01-27T01:00:03.119Z,32.82
2024-01-27T01:00:34.962Z,32.71
2024-01-27T01:01:06.877Z,33.05
2024-01-27T01:01:38.631Z,32.89
2024-01-27T01:02:10.300Z,32.97
2024-01-27T01:02:42.003Z,32.92
2024-01-27T01:03:13.918Z,32.87
2024-01-27T01:03:45.885Z,32.95
2024-01-27T01:04:18.870Z,32.78
2024-01-27T01:04:50.712Z,32.93
2024-01-27T01:05:22.440Z,32.92
2024-01-27T01:05:54.290Z,33.01
2024-01-27T01:06:26.056Z,32.82
2024-01-27T01:06:57.885Z,32.68
2024-01-27T01:07:29.615Z,32.88
2024-01-27T01:08:01.402Z,32.89
2024-01-27T01:08:33.147Z,32.88
2024-01-27T01:09:04.904Z,32.81
2024-01-27T01:09:36.666Z,32.99
2024-01-27T01:10:08.684Z,32.88
2024-01-27T01:10:40.425Z,33.12
2024-01-27T01:11:12.183Z,32.90
2024-01-27T01:11:43.949Z,32.84
2024-01-27T01:12:15.834Z,32.94
2024-01-27T01:12:47.542Z,33.04
2024-01-27T01:13:19.338Z,32.96
2024-01-27T01:13:51.046Z,32.68
2024-01-27T01:14:22.780Z,33.06
2024-01-27T01:14:54.513Z,32.75
2024-01-27T01:15:26.429Z,33.05
2024-01-27T01:15:58.283Z,32.78
2024-01-27T01:16:29.955Z,32.88
2024-01-27T01:17:01.735Z,32.87
2024-01-27T01:17:33.591Z,32.84
2024-01-27T01:18:05.595Z,32.99
2024-01-27T01:18:37.481Z,32.70
2024-01-27T01:19:09.409Z,33.09
2024-01-27T01:19:44.000Z,32.69
2024-01-27T01:20:15.715Z,32.81
2024-01-27T01:20:47.482Z,32.90
2024-01-27T01:21:19.209Z,32.89
2024-01-27T01:21:50.941Z,32.66
2024-01-27T01:22:22.557Z,32.74
2024-01-27T01:22:54.233Z,32.66
2024-01-27T01:23:26.022Z,32.78
2024-01-27T01:23:57.819Z,32.84
2024-01-27T01:24:30.527Z,32.82
2024-01-27T01:25:02.304Z,32.99
2024-01-27T01:25:33.992Z,33.06
2024-01-27T01:26:05.753Z,32.62
2024-01-27T01:26:37.434Z,32.91
2024-01-27T01:27:09.168Z,32.89
2024-01-27T01:27:40.975Z,32.95
2024-01-27T01:28:12.774Z,32.86
2024-01-27T01:28:44.686Z,32.90
2024-01-27T01:29:17.209Z,32.91
2024-01-27T01:29:49.167Z,32.89
2024-01-27T01:30:21.208Z,32.70
2024-01-27T01:30:52.918Z,32.82
2024-01-27T01:31:24.570Z,32.92
2024-01-27T01:31:56.317Z,32.85
2024-01-27T01:32:28.110Z,32.89
2024-01-27T01:32:59.912Z,33.12
2024-01-27T01:33:31.976Z,32.87
2024-01-27T01:34:03.976Z,33.10
2024-01-27T01:34:35.879Z,32.62
2024-01-27T01:35:07.750Z,32.90
2024-01-27T01:35:39.511Z,32.86
2024-01-27T01:36:11.320Z,32.62
2024-01-27T01:36:43.124Z,32.72
2024-01-27T01:37:14.948Z,32.62
2024-01-27T01:37:46.747Z,32.81
2024-01-27T01:38:18.535Z,32.69
2024-01-27T01:38:50.283Z,33.01
2024-01-27T01:39:22.015Z,32.96
2024-01-27T01:39:53.844Z,32.78
2024-01-27T01:40:25.584Z,32.99
2024-01-27T01:40:57.273Z,32.64
2024-01-27T01:41:28.987Z,32.98
2024-01-27T01:42:00.711Z,32.86
2024-01-27T01:42:32.604Z,32.93
2024-01-27T01:43:13.060Z,32.82
2024-01-27T01:43:44.804Z,32.70
2024-01-27T01:44:16.532Z,32.58
2024-01-27T01:44:48.349Z,32.69
2024-01-27T01:45:20.174Z,32.87
2024-01-27T01:45:51.931Z,32.72
2024-01-27T01:46:23.747Z,32.52
2024-01-27T01:46:55.374Z,32.83
2024-01-27T01:47:27.149Z,32.83
2024-01-27T01:47:59.029Z,32.75
2024-01-27T01:48:30.939Z,32.75
2024-01-27T01:49:02.929Z,32.82
2024-01-27T01:49:34.772Z,32.74
2024-01-27T01:50:06.978Z,32.68
2024-01-27T01:50:38.670Z,32.51
2024-01-27T01:51:10.537Z,32.82
2024-01-27T01:51:42.272Z,32.76
2024-01-27T01:52:14.073Z,32.78
2024-01-27T01:52:45.785Z,32.58
2024-01-27T01:53:17.485Z,32.77
2024-01-27T01:53:49.617Z,32.79
2024-01-27T01:54:24.104Z,32.84
2024-01-27T01:54:55.886Z,32.90
2024-01-27T01:55:27.627Z,32.93
2024-01-27T01:55:59.391Z,32.57
2024-01-27T01:56:31.342Z,32.68
2024-01-27T01:57:03.381Z,32.86
2024-01-27T01:57:35.181Z,32.72
2024-01-27T01:58:06.960Z,32.80
2024-01-27T01:58:38.674Z,32.76
2024-01-27T01:59:10.439Z,32.89
2024-01-27T01:59:42.328Z,32.63
2024-01-27T02:00:14.448Z,32.91
2024-01-27T02:00:46.289Z,32.61
2024-01-27T02:01:18.722Z,32.50
2024-01-27T02:01:50.643Z,32.75
2024-01-27T02:02:22.408Z,32.80
2024-01-27T02:02:54.295Z,32.74
2024-01-27T02:03:26.036Z,32.88
2024-01-27T02:03:58.040Z,32.74
2024-01-27T02:04:29.805Z,32.55
2024-01-27T02:05:01.607Z,32.83
2024-01-27T02:05:33.442Z,32.74
2024-01-27T02:06:05.398Z,32.53
2024-01-27T02:06:37.366Z,32.71
2024-01-27T02:07:09.405Z,32.90
2024-01-27T02:07:41.037Z,32.58
2024-01-27T02:08:12.762Z,32.83
2024-01-27T02:08:44.457Z,32.59
2024-01-27T02:09:16.156Z,32.49
2024-01-27T02:09:47.818Z,32.86
2024-01-27T02:10:19.807Z,32.79
2024-01-27T02:10:51.566Z,32.84
2024-01-27T02:11:23.432Z,32.46
2024-01-27T02:11:55.328Z,32.70
2024-01-27T02:12:27.066Z,32.75
2024-01-27T02:12:58.837Z,32.58
2024-01-27T02:13:30.559Z,32.70
2024-01-27T02:14:02.433Z,32.76
2024-01-27T02:14:34.199Z,32.50
2024-01-27T02:15:06.072Z,32.62
2024-01-27T02:15:37.923Z,32.76
2024-01-27T02:16:09.747Z,32.40
2024-01-27T02:16:41.502Z,32.64
2024-01-27T02:17:13.324Z,32.91
2024-01-27T02:17:45.110Z,32.61
2024-01-27T02:18:19.966Z,32.70
2024-01-27T02:18:51.807Z,32.68
2024-01-27T02:19:24.097Z,32.56
2024-01-27T02:19:55.985Z,32.84
2024-01-27T02:20:27.748Z,32.67
2024-01-27T02:20:59.458Z,32.66
2024-01-27T02:21:31.202Z,32.86
2024-01-27T02:22:02.970Z,32.43
2024-01-27T02:22:35.122Z,32.67
2024-01-27T02:23:06.808Z,32.61
2024-01-27T02:23:38.598Z,32.49
2024-01-27T02:24:10.311Z,32.65
2024-01-27T02:24:42.073Z,32.42
2024-01-27T02:25:13.891Z,32.63
2024-01-27T02:25:45.630Z,32.47
2024-01-27T02:26:17.321Z,32.59
2024-01-27T02:26:48.992Z,32.64
2024-01-27T02:27:20.765Z,32.52
2024-01-27T02:27:52.518Z,32.69
2024-01-27T02:28:24.877Z,32.50
2024-01-27T02:28:56.618Z,32.79
2024-01-27T02:29:28.385Z,32.70
2024-01-27T02:30:00.164Z,32.59
2024-01-27T02:30:31.918Z,32.79
2024-01-27T02:31:03.729Z,32.39
2024-01-27T02:31:35.453Z,32.87
2024-01-27T02:32:07.263Z,32.66
2024-01-27T02:32:39.053Z,32.65
2024-01-27T02:33:10.960Z,32.70
2024-01-27T02:33:42.932Z,32.68
2024-01-27T02:34:15.076Z,32.52
2024-01-27T02:34:46.902Z,32.62
2024-01-27T02:35:18.640Z,32.71
2024-01-27T02:35:50.422Z,32.62
2024-01-27T02:36:22.154Z,32.67
2024-01-27T02:36:53.839Z,32.58
2024-01-27T02:37:25.668Z,32.76
2024-01-27T02:37:57.413Z,32.53
2024-01-27T02:38:29.215Z,32.47
2024-01-27T02:39:00.950Z,32.55
2024-01-27T02:39:32.664Z,32.83
2024-01-27T02:40:04.589Z,32.56
2024-01-27T02:40:36.304Z,32.55
2024-01-27T02:41:07.995Z,32.68
2024-01-27T02:41:39.950Z,32.63
2024-01-27T02:42:11.717Z,32.76
2024-01-27T02:42:43.399Z,32.49
2024-01-27T02:43:15.075Z,32.59
2024-01-27T02:43:46.856Z,32.62
2024-01-27T02:44:18.595Z,32.44
2024-01-27T02:44:50.336Z,32.71
2024-01-27T02:45:22.110Z,32.78
2024-01-27T02:45:53.897Z,32.36
2024-01-27T02:46:25.616Z,32.40
2024-01-27T02:46:57.363Z,32.45
2024-01-27T02:47:29.060Z,32.51
2024-01-27T02:48:01.024Z,32.52
2024-01-27T02:48:33.058Z,32.58
2024-01-27T02:49:05.091Z,32.55
2024-01-27T02:49:37.339Z,32.59
2024-01-27T02:50:09.439Z,32.62
2024-01-27T02:50:41.297Z,32.40
2024-01-27T02:51:13.027Z,32.57
2024-01-27T02:51:44.819Z,32.43
2024-01-27T02:52:16.577Z,32.44
2024-01-27T02:52:48.389Z,32.51
2024-01-27T02:53:20.137Z,32.46
2024-01-27T02:53:51.836Z,32.52
2024-01-27T02:54:23.694Z,32.44
2024-01-27T02:54:56.090Z,32.31
2024-01-27T02:55:27.710Z,32.65
2024-01-27T02:55:59.418Z,32.53
2024-01-27T02:56:31.140Z,32.55
2024-01-27T02:57:02.949Z,32.59
2024-01-27T02:57:34.955Z,32.49
2024-01-27T02:58:06.764Z,32.56
2024-01-27T02:58:38.455Z,32.61
2024-01-27T02:59:10.196Z,32.54
2024-01-27T02:59:41.854Z,32.57
2024-01-27T03:00:13.743Z,32.57
2024-01-27T03:00:45.593Z,32.39
2024-01-27T03:01:17.453Z,32.43
2024-01-27T03:01:49.328Z,32.39
2024-01-27T03:02:21.035Z,32.58
2024-01-27T03:02:52.765Z,32.57
2024-01-27T03:03:24.568Z,32.55
2024-01-27T03:03:56.521Z,32.68
2024-01-27T03:04:28.346Z,32.56
2024-01-27T03:05:00.172Z,32.70
2024-01-27T03:05:32.114Z,32.74
2024-01-27T03:06:03.962Z,32.57
2024-01-27T03:06:35.859Z,32.44
2024-01-27T03:07:07.708Z,32.66
2024-01-27T03:07:39.415Z,32.56
2024-01-27T03:08:11.413Z,32.62
2024-01-27T03:08:43.146Z,32.52
2024-01-27T03:09:14.928Z,32.57
2024-01-27T03:09:46.701Z,32.65
2024-01-27T03:10:18.419Z,32.52
2024-01-27T03:10:50.108Z,32.40
2024-01-27T03:11:21.898Z,32.34
2024-01-27T03:11:53.721Z,32.43
2024-01-27T03:12:25.529Z,32.49
2024-01-27T03:12:57.269Z,32.62
2024-01-27T03:13:28.955Z,32.64
2024-01-27T03:14:00.573Z,32.57
2024-01-27T03:14:32.318Z,32.73
2024-01-27T03:15:04.286Z,32.63
2024-01-27T03:15:36.042Z,32.52
2024-01-27T03:16:10.069Z,32.59
2024-01-27T03:16:41.954Z,32.42
2024-01-27T03:17:13.773Z,32.65
2024-01-27T03:17:45.526Z,32.69
2024-01-27T03:18:17.549Z,32.62
2024-01-27T03:18:49.703Z,32.45
2024-01-27T03:19:21.649Z,32.42
2024-01-27T03:19:53.606Z,32.61
2024-01-27T03:20:25.377Z,32.60
2024-01-27T03:20:57.246Z,32.38
2024-01-27T03:21:29.146Z,32.35
2024-01-27T03:22:00.877Z,32.54
2024-01-27T03:22:32.662Z,32.65
2024-01-27T03:23:04.458Z,32.46
2024-01-27T03:23:36.245Z,32.44
2024-01-27T03:24:07.982Z,32.28
2024-01-27T03:24:39.774Z,32.27
2024-01-27T03:25:11.447Z,32.50
2024-01-27T03:25:43.296Z,32.50
2024-01-27T03:26:15.054Z,32.24
2024-01-27T03:26:46.871Z,32.52
2024-01-27T03:27:18.774Z,32.45
2024-01-27T03:27:50.563Z,32.65
2024-01-27T03:28:22.337Z,32.32
2024-01-27T03:28:54.080Z,32.66
2024-01-27T03:29:25.972Z,32.24
2024-01-27T03:30:00.113Z,32.50
2024-01-27T03:30:32.101Z,32.65
2024-01-27T03:31:03.989Z,32.42
2024-01-27T03:31:35.682Z,32.22
2024-01-27T03:32:07.425Z,32.51
2024-01-27T03:32:39.151Z,32.57
2024-01-27T03:33:11.097Z,32.36
2024-01-27T03:33:43.080Z,32.60
2024-01-27T03:34:14.966Z,32.21
2024-01-27T03:34:46.947Z,32.44
2024-01-27T03:35:19.025Z,32.44
2024-01-27T03:35:50.833Z,32.32
2024-01-27T03:36:22.658Z,32.41
2024-01-27T03:36:54.326Z,32.52
2024-01-27T03:37:26.007Z,32.64
2024-01-27T03:37:57.651Z,32.62
2024-01-27T03:38:29.315Z,32.33
2024-01-27T03:39:01.188Z,32.54
2024-01-27T03:39:33.089Z,32.59
2024-01-27T03:40:05.084Z,32.33
2024-01-27T03:40:36.794Z,32.36
2024-01-27T03:41:08.573Z,32.43
2024-01-27T03:41:40.270Z,32.65
2024-01-27T03:42:11.985Z,32.54
2024-01-27T03:42:43.763Z,32.29
2024-01-27T03:43:15.538Z,32.52
2024-01-27T03:43:47.215Z,32.36
2024-01-27T03:44:19.013Z,32.16
2024-01-27T03:44:50.800Z,32.31
2024-01-27T03:45:22.632Z,32.50
2024-01-27T03:45:54.361Z,32.34
2024-01-27T03:46:25.996Z,32.48
2024-01-27T03:46:57.641Z,32.37
2024-01-27T03:47:29.430Z,32.25
2024-01-27T03:48:01.401Z,32.62
2024-01-27T03:48:33.348Z,32.68
2024-01-27T03:49:05.288Z,32.62
2024-01-27T03:49:37.291Z,32.60
2024-01-27T03:50:09.094Z,32.38
2024-01-27T03:50:40.853Z,32.46
2024-01-27T03:51:12.549Z,32.19
2024-01-27T03:51:44.271Z,32.41
2024-01-27T03:52:16.017Z,32.38
2024-01-27T03:52:47.680Z,32.31
2024-01-27T03:53:19.317Z,32.55
2024-01-27T03:53:51.209Z,32.22
2024-01-27T03:54:23.023Z,32.53
2024-01-27T03:54:54.784Z,32.48
2024-01-27T03:55:26.462Z,32.38
2024-01-27T03:55:58.384Z,32.47
2024-01-27T03:56:30.148Z,32.51
2024-01-27T03:57:02.084Z,32.24
2024-01-27T03:57:33.904Z,32.54
2024-01-27T03:58:05.693Z,32.31
2024-01-27T03:58:37.483Z,32.20
2024-01-27T03:59:09.182Z,32.52
2024-01-27T03:59:43.354Z,32.58
2024-01-27T04:00:15.259Z,32.42
2024-01-27T04:00:47.314Z,32.59
2024-01-27T04:01:19.309Z,32.57
2024-01-27T04:01:50.935Z,32.27
2024-01-27T04:02:22.624Z,32.27
2024-01-27T04:02:54.511Z,32.38
2024-01-27T04:03:26.364Z,32.41
2024-01-27T04:03:58.145Z,32.34
2024-01-27T04:04:29.993Z,32.38
2024-01-27T04:05:01.688Z,32.28
2024-01-27T04:05:33.468Z,32.33
2024-01-27T04:06:05.518Z,32.34
2024-01-27T04:06:38.021Z,32.44
2024-01-27T04:07:09.967Z,32.39
2024-01-27T04:07:41.802Z,32.50
2024-01-27T04:08:13.524Z,32.30
2024-01-27T04:08:45.244Z,32.52
2024-01-27T04:09:17.032Z,32.39
2024-01-27T04:09:48.977Z,32.26
2024-01-27T04:10:20.919Z,32.53
2024-01-27T04:10:52.758Z,32.46
2024-01-27T04:11:24.521Z,32.37
2024-01-27T04:11:56.204Z,32.39
2024-01-27T04:12:28.051Z,32.25
2024-01-27T04:12:59.845Z,32.37
2024-01-27T04:13:31.615Z,32.30
2024-01-27T04:14:04.069Z,32.12
2024-01-27T04:14:35.868Z,32.36
2024-01-27T04:15:07.887Z,32.37
2024-01-27T04:15:40.132Z,32.35
2024-01-27T04:16:12.117Z,32.36
2024-01-27T04:16:43.810Z,32.31
2024-01-27T04:17:15.571Z,32.29
2024-01-27T04:17:47.360Z,32.42
2024-01-27T04:18:19.331Z,32.11
2024-01-27T04:18:51.352Z,32.39
2024-01-27T04:19:23.329Z,32.51
2024-01-27T04:19:55.217Z,32.20
2024-01-27T04:20:27.022Z,32.40
2024-01-27T04:20:58.796Z,32.40
2024-01-27T04:21:30.720Z,32.17
2024-01-27T04:22:02.515Z,32.20
2024-01-27T04:22:36.882Z,32.33
2024-01-27T04:23:08.624Z,32.51
2024-01-27T04:23:40.282Z,32.41
2024-01-27T04:24:12.014Z,32.35
2024-01-27T04:24:43.779Z,32.24
2024-01-27T04:25:15.459Z,32.22
2024-01-27T04:25:47.159Z,32.32
2024-01-27T04:26:19.017Z,32.17
2024-01-27T04:26:50.712Z,32.30
2024-01-27T04:27:22.493Z,32.17
2024-01-27T04:27:54.244Z,32.25
2024-01-27T04:28:25.950Z,32.25
2024-01-27T04:28:57.636Z,32.34
2024-01-27T04:29:29.392Z,32.13
2024-01-27T04:30:01.330Z,32.38
2024-01-27T04:30:33.363Z,32.45
2024-01-27T04:31:05.321Z,32.38
2024-01-27T04:31:40.843Z,32.28
2024-01-27T04:32:12.916Z,32.26
2024-01-27T04:32:44.738Z,32.35
2024-01-27T04:33:16.677Z,32.48
2024-01-27T04:33:48.528Z,32.48
2024-01-27T04:34:20.413Z,32.17
2024-01-27T04:34:52.293Z,32.31
2024-01-27T04:35:24.053Z,32.38
2024-01-27T04:35:55.901Z,32.08
2024-01-27T04:36:28.329Z,32.31
2024-01-27T04:37:00.036Z,32.02
2024-01-27T04:37:31.790Z,32.26
2024-01-27T04:38:03.528Z,32.38
2024-01-27T04:38:35.301Z,32.22
2024-01-27T04:39:07.181Z,32.20
2024-01-27T04:39:39.127Z,31.96
2024-01-27T04:40:11.229Z,32.17
2024-01-27T04:40:43.049Z,32.26
2024-01-27T04:41:14.753Z,32.32
2024-01-27T04:41:46.457Z,32.23
2024-01-27T04:42:18.376Z,32.03
2024-01-27T04:42:50.112Z,32.33
2024-01-27T04:43:21.809Z,32.19
2024-01-27T04:43:53.569Z,32.20
2024-01-27T04:44:25.266Z,32.41
2024-01-27T04:44:57.070Z,32.21
2024-01-27T04:45:28.900Z,32.07
2024-01-27T04:46:00.688Z,32.18
2024-01-27T04:46:32.406Z,32.15
2024-01-27T04:47:04.221Z,32.21
2024-01-27T04:47:36.239Z,32.21
2024-01-27T04:48:08.168Z,32.33
2024-01-27T04:48:40.130Z,32.16
2024-01-27T04:49:12.172Z,32.12
2024-01-27T04:49:44.295Z,32.13
2024-01-27T04:50:16.216Z,32.20
2024-01-27T04:50:48.007Z,32.02
2024-01-27T04:51:19.907Z,32.21
2024-01-27T04:51:51.816Z,32.46
2024-01-27T04:52:23.673Z,32.13
2024-01-27T04:52:55.366Z,32.02
2024-01-27T04:53:27.067Z,32.16
2024-01-27T04:53:58.828Z,32.08
2024-01-27T04:54:30.727Z,32.08
2024-01-27T04:55:02.766Z,32.03
2024-01-27T04:55:34.504Z,32.49
2024-01-27T04:56:06.465Z,32.33
2024-01-27T04:56:38.180Z,32.37
2024-01-27T04:57:09.925Z,32.24
2024-01-27T04:57:41.857Z,32.02
2024-01-27T04:58:13.536Z,32.41
2024-01-27T04:58:45.358Z,32.12
2024-01-27T04:59:17.143Z,32.05
2024-01-27T04:59:48.983Z,32.24
2024-01-27T05:00:20.894Z,32.27
2024-01-27T05:00:52.858Z,32.28
2024-01-27T05:01:24.569Z,32.32
2024-01-27T05:01:56.247Z,32.21
2024-01-27T05:02:27.890Z,32.31
2024-01-27T05:02:59.687Z,32.32
2024-01-27T05:03:31.598Z,32.11
2024-01-27T05:04:03.525Z,32.26
2024-01-27T05:04:35.327Z,32.12
2024-01-27T05:05:07.358Z,32.25
2024-01-27T05:05:39.150Z,32.08
2024-01-27T05:06:10.991Z,32.35
2024-01-27T05:06:45.908Z,32.37
2024-01-27T05:07:17.767Z,32.32
2024-01-27T05:07:49.526Z,32.43
2024-01-27T05:08:21.299Z,32.37
2024-01-27T05:08:53.040Z,32.37
2024-01-27T05:09:24.797Z,32.23
2024-01-27T05:09:56.545Z,32.00
2024-01-27T05:10:28.191Z,32.12
2024-01-27T05:10:59.910Z,32.39
2024-01-27T05:11:32.103Z,32.25
2024-01-27T05:12:04.052Z,32.27
2024-01-27T05:12:35.924Z,32.17
2024-01-27T05:13:07.795Z,32.11
2024-01-27T05:13:41.010Z,32.13
2024-01-27T05:14:12.756Z,32.12
2024-01-27T05:14:44.979Z,32.16
2024-01-27T05:15:16.710Z,32.21
2024-01-27T05:15:48.435Z,31.99
2024-01-27T05:16:20.132Z,32.23
2024-01-27T05:16:51.841Z,32.28
2024-01-27T05:17:23.794Z,32.30
2024-01-27T05:17:55.730Z,32.07
2024-01-27T05:18:27.561Z,32.30
2024-01-27T05:18:59.420Z,32.14
2024-01-27T05:19:31.364Z,32.17
2024-01-27T05:20:03.289Z,32.12
2024-01-27T05:20:35.063Z,32.12
2024-01-27T05:21:06.867Z,32.07
2024-01-27T05:21:41.586Z,32.26
2024-01-27T05:22:13.403Z,32.23
2024-01-27T05:22:45.151Z,31.92
2024-01-27T05:23:16.946Z,32.33
2024-01-27T05:23:48.895Z,32.36
2024-01-27T05:24:20.648Z,32.17
2024-01-27T05:24:52.331Z,32.24
2024-01-27T05:25:24.018Z,32.06
2024-01-27T05:25:55.650Z,32.06
2024-01-27T05:26:27.360Z,32.17
2024-01-27T05:26:59.149Z,32.32
2024-01-27T05:27:30.961Z,32.07
2024-01-27T05:28:02.669Z,31.99
2024-01-27T05:28:34.427Z,32.24
2024-01-27T05:29:06.146Z,31.96
2024-01-27T05:29:38.312Z,32.24
2024-01-27T05:30:10.259Z,32.02
2024-01-27T05:30:41.977Z,31.94
2024-01-27T05:31:13.804Z,32.13
2024-01-27T05:31:45.616Z,32.04
2024-01-27T05:32:18.600Z,32.37
2024-01-27T05:32:50.424Z,32.21
2024-01-27T05:33:22.294Z,32.22
2024-01-27T05:33:54.131Z,32.18
2024-01-27T05:34:26.223Z,32.07
2024-01-27T05:34:58.052Z,32.14
2024-01-27T05:35:29.728Z,32.08
2024-01-27T05:36:01.486Z,32.20
2024-01-27T05:36:33.223Z,32.38
2024-01-27T05:37:04.960Z,32.25
2024-01-27T05:37:36.735Z,32.15
2024-01-27T05:38:08.454Z,31.93
2024-01-27T05:38:40.310Z,32.11
2024-01-27T05:39:12.015Z,32.40
2024-01-27T05:39:43.816Z,32.20
2024-01-27T05:40:15.606Z,32.25
2024-01-27T05:40:47.462Z,31.87
2024-01-27T05:41:19.171Z,32.03
2024-01-27T05:41:50.909Z,32.06
2024-01-27T05:42:22.795Z,32.04
2024-01-27T05:42:54.504Z,32.06
2024-01-27T05:43:26.205Z,32.17
2024-01-27T05:43:57.983Z,32.07
2024-01-27T05:44:29.666Z,32.07
2024-01-27T05:45:01.484Z,32.18
2024-01-27T05:45:33.335Z,32.18
2024-01-27T05:46:05.229Z,32.26
2024-01-27T05:46:36.987Z,32.18
2024-01-27T05:47:11.797Z,32.08
2024-01-27T05:47:43.963Z,32.09
2024-01-27T05:48:16.037Z,32.20
2024-01-27T05:48:47.926Z,32.40
2024-01-27T05:49:19.938Z,31.89
2024-01-27T05:49:51.847Z,32.14
2024-01-27T05:50:23.751Z,32.17
2024-01-27T05:50:58.477Z,32.01
2024-01-27T05:51:30.338Z,32.05
2024-01-27T05:52:02.089Z,32.33
2024-01-27T05:52:33.762Z,32.24
2024-01-27T05:53:05.663Z,32.13
2024-01-27T05:53:37.397Z,32.28
2024-01-27T05:54:10.113Z,32.30
2024-01-27T05:54:42.112Z,32.16
2024-01-27T05:55:13.800Z,32.03
2024-01-27T05:55:47.641Z,32.07
2024-01-27T05:56:19.313Z,32.12
2024-01-27T05:56:51.030Z,32.20
2024-01-27T05:57:22.880Z,32.09
2024-01-27T05:57:54.680Z,31.99
2024-01-27T05:58:26.341Z,32.01
2024-01-27T05:58:58.367Z,32.02
2024-01-27T05:59:30.282Z,32.15
2024-01-27T06:00:02.268Z,32.15
2024-01-27T06:00:34.393Z,32.29
2024-01-27T06:01:06.278Z,32.04
2024-01-27T06:01:38.056Z,31.97
2024-01-27T06:02:09.977Z,32.24
2024-01-27T06:02:41.705Z,31.99
2024-01-27T06:03:13.628Z,32.36
2024-01-27T06:03:45.483Z,32.06
2024-01-27T06:04:17.476Z,32.26
2024-01-27T06:04:49.213Z,32.11
2024-01-27T06:05:20.976Z,32.15
2024-01-27T06:05:52.812Z,32.19
2024-01-27T06:06:24.694Z,31.99
2024-01-27T06:06:56.738Z,31.84
2024-01-27T06:07:28.619Z,32.01
2024-01-27T06:08:00.342Z,31.84
2024-01-27T06:08:32.083Z,32.16
2024-01-27T06:09:03.865Z,32.01
2024-01-27T06:09:35.806Z,32.11
2024-01-27T06:10:10.252Z,32.16
2024-01-27T06:10:41.976Z,32.09
2024-01-27T06:11:13.647Z,32.07
2024-01-27T06:11:45.328Z,31.97
2024-01-27T06:12:17.010Z,32.25
2024-01-27T06:12:48.683Z,32.08
2024-01-27T06:13:20.328Z,31.87
2024-01-27T06:13:52.064Z,32.15
2024-01-27T06:14:23.816Z,31.97
2024-01-27T06:14:55.668Z,31.89
2024-01-27T06:15:27.364Z,32.04
2024-01-27T06:15:59.106Z,32.23
2024-01-27T06:16:30.842Z,32.25
2024-01-27T06:17:04.186Z,32.04
2024-01-27T06:17:35.958Z,32.19
2024-01-27T06:18:07.988Z,32.16
2024-01-27T06:18:40.021Z,32.30
2024-01-27T06:19:12.018Z,32.03
2024-01-27T06:19:43.923Z,31.76
2024-01-27T06:20:15.868Z,32.12
2024-01-27T06:20:47.579Z,32.01
2024-01-27T06:21:19.276Z,32.09
2024-01-27T06:21:51.042Z,32.09
2024-01-27T06:22:22.900Z,31.94
2024-01-27T06:22:54.679Z,32.20
2024-01-27T06:23:26.348Z,32.24
2024-01-27T06:23:58.078Z,31.95
2024-01-27T06:24:29.868Z,32.01
2024-01-27T06:25:01.631Z,31.97
2024-01-27T06:25:33.369Z,32.02
2024-01-27T06:26:08.090Z,31.93
2024-01-27T06:26:39.734Z,32.02
2024-01-27T06:27:11.837Z,31.93
2024-01-27T06:27:43.560Z,31.79
2024-01-27T06:28:15.305Z,32.19
2024-01-27T06:28:46.986Z,32.17
2024-01-27T06:29:18.659Z,32.00
2024-01-27T06:29:50.451Z,32.18
2024-01-27T06:30:22.239Z,32.07
2024-01-27T06:30:53.939Z,31.97
2024-01-27T06:31:25.661Z,31.81
2024-01-27T06:31:57.390Z,32.03
2024-01-27T06:32:29.201Z,32.11
2024-01-27T06:33:01.011Z,31.93
2024-01-27T06:33:33.152Z,32.00
2024-01-27T06:34:05.033Z,32.08
2024-01-27T06:34:36.838Z,32.03
2024-01-27T06:35:08.827Z,32.09
2024-01-27T06:35:40.550Z,32.13
2024-01-27T06:36:12.315Z,31.97
2024-01-27T06:36:44.209Z,32.08
2024-01-27T06:37:15.892Z,32.02
2024-01-27T06:37:47.588Z,31.94
2024-01-27T06:38:19.305Z,32.13
2024-01-27T06:38:51.310Z,32.08
2024-01-27T06:39:23.114Z,32.04
2024-01-27T06:39:54.901Z,32.00
2024-01-27T06:40:26.754Z,32.15
2024-01-27T06:40:58.531Z,31.99
2024-01-27T06:41:30.254Z,32.06
2024-01-27T06:42:02.031Z,32.28
2024-01-27T06:42:33.829Z,32.00
2024-01-27T06:43:05.755Z,32.04
2024-01-27T06:43:37.543Z,32.05
2024-01-27T06:44:09.280Z,32.04
2024-01-27T06:44:41.100Z,32.12
2024-01-27T06:45:12.967Z,31.84
2024-01-27T06:45:44.720Z,31.79
2024-01-27T06:46:16.459Z,32.19
2024-01-27T06:46:48.208Z,32.00
2024-01-27T06:47:19.909Z,31.81
2024-01-27T06:47:51.747Z,31.94
2024-01-27T06:48:23.688Z,31.97
2024-01-27T06:48:55.582Z,32.14
2024-01-27T06:49:27.499Z,31.96
2024-01-27T06:49:59.374Z,32.03
2024-01-27T06:50:31.529Z,31.99